sensor_id;sensor_type;location;lat;lon;timestamp;P1;durP1;ratioP1;P2;durP2;ratioP2
69188;SDS011;56302;52.322;5.926;2023-04-01T00:00:23;3.45;;;1.92;;
69188;SDS011;56302;52.322;5.926;2023-04-01T00:02:49;3.95;;;1.95;;
69188;SDS011;56302;52.322;5.926;2023-04-01T00:05:15;3.67;;;1.77;;
69188;SDS011;56302;52.322;5.926;2023-04-01T00:07:41;5.97;;;2.03;;
69188;SDS011;56302;52.322;5.926;2023-04-01T00:10:08;4.47;;;1.92;;
69188;SDS011;56302;52.322;5.926;2023-04-01T00:12:35;6.05;;;2.10;;
69188;SDS011;56302;52.322;5.926;2023-04-01T00:15:01;4.40;;;2.00;;
69188;SDS011;56302;52.322;5.926;2023-04-01T00:17:28;4.35;;;2.42;;
69188;SDS011;56302;52.322;5.926;2023-04-01T00:19:56;5.47;;;2.17;;
69188;SDS011;56302;52.322;5.926;2023-04-01T00:22:23;5.73;;;1.83;;
69188;SDS011;56302;52.322;5.926;2023-04-01T00:24:49;4.78;;;2.25;;
69188;SDS011;56302;52.322;5.926;2023-04-01T00:27:15;4.50;;;2.70;;
69188;SDS011;56302;52.322;5.926;2023-04-01T00:29:50;6.27;;;2.50;;
69188;SDS011;56302;52.322;5.926;2023-04-01T00:32:15;5.15;;;2.60;;
69188;SDS011;56302;52.322;5.926;2023-04-01T00:34:41;4.55;;;2.75;;
69188;SDS011;56302;52.322;5.926;2023-04-01T00:37:07;6.50;;;3.20;;
69188;SDS011;56302;52.322;5.926;2023-04-01T00:39:33;4.30;;;2.78;;
69188;SDS011;56302;52.322;5.926;2023-04-01T00:42:00;6.28;;;3.30;;
69188;SDS011;56302;52.322;5.926;2023-04-01T00:44:28;6.68;;;3.30;;
69188;SDS011;56302;52.322;5.926;2023-04-01T00:46:56;6.07;;;3.40;;
69188;SDS011;56302;52.322;5.926;2023-04-01T00:49:22;8.30;;;3.67;;
69188;SDS011;56302;52.322;5.926;2023-04-01T00:51:53;7.22;;;4.45;;
69188;SDS011;56302;52.322;5.926;2023-04-01T00:54:22;8.68;;;4.68;;
69188;SDS011;56302;52.322;5.926;2023-04-01T00:57:10;7.93;;;4.22;;
69188;SDS011;56302;52.322;5.926;2023-04-01T00:59:43;9.30;;;4.70;;
69188;SDS011;56302;52.322;5.926;2023-04-01T01:02:13;9.32;;;4.90;;
69188;SDS011;56302;52.322;5.926;2023-04-01T01:04:39;11.35;;;5.20;;
69188;SDS011;56302;52.322;5.926;2023-04-01T01:13:16;12.30;;;5.65;;
69188;SDS011;56302;52.322;5.926;2023-04-01T01:18:30;12.85;;;6.68;;
69188;SDS011;56302;52.322;5.926;2023-04-01T01:26:51;12.02;;;6.72;;
69188;SDS011;56302;52.322;5.926;2023-04-01T01:35:20;12.70;;;6.23;;
69188;SDS011;56302;52.322;5.926;2023-04-01T01:37:46;10.73;;;6.07;;
69188;SDS011;56302;52.322;5.926;2023-04-01T01:40:15;12.25;;;6.13;;
69188;SDS011;56302;52.322;5.926;2023-04-01T01:42:44;12.23;;;6.20;;
69188;SDS011;56302;52.322;5.926;2023-04-01T01:45:12;12.82;;;6.63;;
69188;SDS011;56302;52.322;5.926;2023-04-01T01:47:42;10.70;;;5.87;;
69188;SDS011;56302;52.322;5.926;2023-04-01T01:50:08;17.77;;;6.70;;
69188;SDS011;56302;52.322;5.926;2023-04-01T01:52:35;12.43;;;6.72;;
69188;SDS011;56302;52.322;5.926;2023-04-01T01:55:01;11.87;;;6.47;;
69188;SDS011;56302;52.322;5.926;2023-04-01T01:57:28;11.48;;;6.80;;
69188;SDS011;56302;52.322;5.926;2023-04-01T01:59:59;12.48;;;6.32;;
69188;SDS011;56302;52.322;5.926;2023-04-01T02:02:29;9.88;;;6.03;;
69188;SDS011;56302;52.322;5.926;2023-04-01T02:04:56;15.50;;;6.80;;
69188;SDS011;56302;52.322;5.926;2023-04-01T02:07:24;13.70;;;6.40;;
69188;SDS011;56302;52.322;5.926;2023-04-01T02:09:54;11.48;;;5.97;;
69188;SDS011;56302;52.322;5.926;2023-04-01T02:12:20;11.38;;;5.63;;
69188;SDS011;56302;52.322;5.926;2023-04-01T02:14:55;12.13;;;5.47;;
69188;SDS011;56302;52.322;5.926;2023-04-01T02:17:30;10.98;;;5.68;;
69188;SDS011;56302;52.322;5.926;2023-04-01T02:19:58;13.13;;;5.30;;
69188;SDS011;56302;52.322;5.926;2023-04-01T02:22:29;12.43;;;5.95;;
69188;SDS011;56302;52.322;5.926;2023-04-01T02:24:59;12.30;;;5.50;;
69188;SDS011;56302;52.322;5.926;2023-04-01T02:27:29;12.73;;;5.47;;
69188;SDS011;56302;52.322;5.926;2023-04-01T02:29:56;11.80;;;5.60;;
69188;SDS011;56302;52.322;5.926;2023-04-01T02:32:22;12.63;;;5.40;;
69188;SDS011;56302;52.322;5.926;2023-04-01T02:34:49;10.35;;;4.75;;
69188;SDS011;56302;52.322;5.926;2023-04-01T02:37:15;13.95;;;5.35;;
69188;SDS011;56302;52.322;5.926;2023-04-01T02:39:41;11.20;;;5.10;;
69188;SDS011;56302;52.322;5.926;2023-04-01T02:42:07;11.63;;;5.43;;
69188;SDS011;56302;52.322;5.926;2023-04-01T02:44:33;13.02;;;5.82;;
69188;SDS011;56302;52.322;5.926;2023-04-01T02:46:59;12.63;;;5.40;;
69188;SDS011;56302;52.322;5.926;2023-04-01T02:49:24;10.37;;;5.30;;
69188;SDS011;56302;52.322;5.926;2023-04-01T02:51:50;11.18;;;5.50;;
69188;SDS011;56302;52.322;5.926;2023-04-01T02:54:16;13.38;;;5.93;;
69188;SDS011;56302;52.322;5.926;2023-04-01T02:56:42;12.83;;;5.50;;
69188;SDS011;56302;52.322;5.926;2023-04-01T02:59:08;12.13;;;5.93;;
69188;SDS011;56302;52.322;5.926;2023-04-01T03:01:33;11.20;;;5.53;;
69188;SDS011;56302;52.322;5.926;2023-04-01T03:03:59;16.57;;;7.00;;
69188;SDS011;56302;52.322;5.926;2023-04-01T03:06:25;13.85;;;6.45;;
69188;SDS011;56302;52.322;5.926;2023-04-01T03:08:50;12.60;;;6.37;;
69188;SDS011;56302;52.322;5.926;2023-04-01T03:11:16;11.73;;;5.90;;
69188;SDS011;56302;52.322;5.926;2023-04-01T03:13:41;11.38;;;6.25;;
69188;SDS011;56302;52.322;5.926;2023-04-01T03:16:07;12.53;;;5.93;;
69188;SDS011;56302;52.322;5.926;2023-04-01T03:18:32;13.07;;;6.40;;
69188;SDS011;56302;52.322;5.926;2023-04-01T03:21:11;12.32;;;5.95;;
69188;SDS011;56302;52.322;5.926;2023-04-01T03:23:47;10.48;;;6.38;;
69188;SDS011;56302;52.322;5.926;2023-04-01T03:26:13;12.73;;;6.20;;
69188;SDS011;56302;52.322;5.926;2023-04-01T03:28:39;13.20;;;6.50;;
69188;SDS011;56302;52.322;5.926;2023-04-01T03:31:05;10.63;;;6.30;;
69188;SDS011;56302;52.322;5.926;2023-04-01T03:33:30;13.60;;;6.80;;
69188;SDS011;56302;52.322;5.926;2023-04-01T03:35:57;12.55;;;6.95;;
69188;SDS011;56302;52.322;5.926;2023-04-01T03:38:22;12.68;;;6.90;;
69188;SDS011;56302;52.322;5.926;2023-04-01T03:40:48;11.77;;;6.50;;
69188;SDS011;56302;52.322;5.926;2023-04-01T03:43:14;12.35;;;6.38;;
69188;SDS011;56302;52.322;5.926;2023-04-01T03:45:45;11.20;;;6.07;;
69188;SDS011;56302;52.322;5.926;2023-04-01T03:48:14;10.27;;;6.05;;
69188;SDS011;56302;52.322;5.926;2023-04-01T03:50:40;10.83;;;6.37;;
69188;SDS011;56302;52.322;5.926;2023-04-01T03:53:06;9.95;;;6.05;;
69188;SDS011;56302;52.322;5.926;2023-04-01T03:55:32;10.07;;;5.63;;
69188;SDS011;56302;52.322;5.926;2023-04-01T03:57:58;10.57;;;5.78;;
69188;SDS011;56302;52.322;5.926;2023-04-01T04:00:24;10.88;;;5.70;;
69188;SDS011;56302;52.322;5.926;2023-04-01T04:02:50;11.43;;;6.47;;
69188;SDS011;56302;52.322;5.926;2023-04-01T04:05:15;12.10;;;6.35;;
69188;SDS011;56302;52.322;5.926;2023-04-01T04:07:41;12.07;;;6.37;;
69188;SDS011;56302;52.322;5.926;2023-04-01T04:10:06;11.57;;;6.60;;
69188;SDS011;56302;52.322;5.926;2023-04-01T04:12:32;11.73;;;6.07;;
69188;SDS011;56302;52.322;5.926;2023-04-01T04:14:58;11.73;;;6.20;;
69188;SDS011;56302;52.322;5.926;2023-04-01T04:17:23;12.13;;;6.43;;
69188;SDS011;56302;52.322;5.926;2023-04-01T04:19:50;13.13;;;7.03;;
69188;SDS011;56302;52.322;5.926;2023-04-01T04:22:15;15.00;;;6.90;;
69188;SDS011;56302;52.322;5.926;2023-04-01T04:24:41;11.87;;;6.77;;
69188;SDS011;56302;52.322;5.926;2023-04-01T04:27:06;12.43;;;6.67;;
69188;SDS011;56302;52.322;5.926;2023-04-01T04:29:32;11.98;;;6.68;;
69188;SDS011;56302;52.322;5.926;2023-04-01T04:31:57;11.93;;;6.67;;
69188;SDS011;56302;52.322;5.926;2023-04-01T04:34:23;12.43;;;6.80;;
69188;SDS011;56302;52.322;5.926;2023-04-01T04:36:48;10.98;;;6.85;;
69188;SDS011;56302;52.322;5.926;2023-04-01T04:39:14;15.17;;;6.50;;
69188;SDS011;56302;52.322;5.926;2023-04-01T04:41:40;12.05;;;7.38;;
69188;SDS011;56302;52.322;5.926;2023-04-01T04:44:06;13.77;;;7.00;;
69188;SDS011;56302;52.322;5.926;2023-04-01T04:46:32;11.88;;;6.55;;
69188;SDS011;56302;52.322;5.926;2023-04-01T04:48:57;11.23;;;6.70;;
69188;SDS011;56302;52.322;5.926;2023-04-01T04:51:23;10.90;;;6.78;;
69188;SDS011;56302;52.322;5.926;2023-04-01T04:53:49;10.98;;;6.68;;
69188;SDS011;56302;52.322;5.926;2023-04-01T04:56:18;13.37;;;6.60;;
69188;SDS011;56302;52.322;5.926;2023-04-01T04:58:46;12.40;;;6.70;;
69188;SDS011;56302;52.322;5.926;2023-04-01T05:01:12;17.67;;;8.13;;
69188;SDS011;56302;52.322;5.926;2023-04-01T05:03:40;12.48;;;6.60;;
69188;SDS011;56302;52.322;5.926;2023-04-01T05:06:06;12.02;;;6.78;;
69188;SDS011;56302;52.322;5.926;2023-04-01T05:08:33;13.55;;;7.35;;
69188;SDS011;56302;52.322;5.926;2023-04-01T05:10:59;14.07;;;7.30;;
69188;SDS011;56302;52.322;5.926;2023-04-01T05:13:25;14.70;;;7.60;;
69188;SDS011;56302;52.322;5.926;2023-04-01T05:15:50;14.18;;;7.22;;
69188;SDS011;56302;52.322;5.926;2023-04-01T05:18:16;15.13;;;7.90;;
69188;SDS011;56302;52.322;5.926;2023-04-01T05:20:46;13.05;;;7.75;;
69188;SDS011;56302;52.322;5.926;2023-04-01T05:23:16;14.93;;;8.10;;
69188;SDS011;56302;52.322;5.926;2023-04-01T05:25:42;13.30;;;7.15;;
69188;SDS011;56302;52.322;5.926;2023-04-01T05:28:08;13.88;;;7.53;;
69188;SDS011;56302;52.322;5.926;2023-04-01T05:30:33;14.90;;;8.05;;
69188;SDS011;56302;52.322;5.926;2023-04-01T05:32:59;15.93;;;7.67;;
69188;SDS011;56302;52.322;5.926;2023-04-01T05:35:24;16.73;;;7.93;;
69188;SDS011;56302;52.322;5.926;2023-04-01T05:37:50;13.15;;;7.80;;
69188;SDS011;56302;52.322;5.926;2023-04-01T05:40:16;16.53;;;7.67;;
69188;SDS011;56302;52.322;5.926;2023-04-01T05:42:41;14.18;;;8.13;;
69188;SDS011;56302;52.322;5.926;2023-04-01T05:45:07;16.25;;;7.68;;
69188;SDS011;56302;52.322;5.926;2023-04-01T05:47:33;15.45;;;7.43;;
69188;SDS011;56302;52.322;5.926;2023-04-01T05:49:59;15.00;;;7.13;;
69188;SDS011;56302;52.322;5.926;2023-04-01T05:52:25;15.23;;;7.77;;
69188;SDS011;56302;52.322;5.926;2023-04-01T05:54:50;15.63;;;6.75;;
69188;SDS011;56302;52.322;5.926;2023-04-01T05:57:16;13.87;;;7.47;;
69188;SDS011;56302;52.322;5.926;2023-04-01T05:59:41;15.43;;;7.43;;
69188;SDS011;56302;52.322;5.926;2023-04-01T06:02:08;18.42;;;7.68;;
69188;SDS011;56302;52.322;5.926;2023-04-01T06:04:37;14.45;;;7.50;;
69188;SDS011;56302;52.322;5.926;2023-04-01T06:07:17;14.83;;;7.07;;
69188;SDS011;56302;52.322;5.926;2023-04-01T06:09:44;15.25;;;7.32;;
69188;SDS011;56302;52.322;5.926;2023-04-01T06:14:46;17.77;;;7.25;;
69188;SDS011;56302;52.322;5.926;2023-04-01T06:20:23;17.20;;;7.10;;
69188;SDS011;56302;52.322;5.926;2023-04-01T06:31:03;14.82;;;7.63;;
69188;SDS011;56302;52.322;5.926;2023-04-01T06:33:46;17.50;;;7.23;;
69188;SDS011;56302;52.322;5.926;2023-04-01T06:36:26;16.17;;;7.40;;
69188;SDS011;56302;52.322;5.926;2023-04-01T06:44:23;18.80;;;6.57;;
69188;SDS011;56302;52.322;5.926;2023-04-01T06:55:25;16.73;;;7.18;;
69188;SDS011;56302;52.322;5.926;2023-04-01T06:58:29;15.55;;;7.22;;
69188;SDS011;56302;52.322;5.926;2023-04-01T07:01:18;19.80;;;6.43;;
69188;SDS011;56302;52.322;5.926;2023-04-01T07:04:50;16.30;;;7.30;;
69188;SDS011;56302;52.322;5.926;2023-04-01T07:07:05;15.50;;;6.53;;
69188;SDS011;56302;52.322;5.926;2023-04-01T07:09:55;16.88;;;5.93;;
69188;SDS011;56302;52.322;5.926;2023-04-01T07:14:51;12.57;;;5.63;;
69188;SDS011;56302;52.322;5.926;2023-04-01T07:17:20;14.82;;;6.10;;
69188;SDS011;56302;52.322;5.926;2023-04-01T07:22:31;15.95;;;6.00;;
69188;SDS011;56302;52.322;5.926;2023-04-01T07:25:20;11.85;;;5.15;;
69188;SDS011;56302;52.322;5.926;2023-04-01T07:28:05;11.35;;;5.18;;
69188;SDS011;56302;52.322;5.926;2023-04-01T07:30:44;11.65;;;5.00;;
69188;SDS011;56302;52.322;5.926;2023-04-01T07:36:16;13.50;;;4.88;;
69188;SDS011;56302;52.322;5.926;2023-04-01T07:38:57;9.60;;;4.50;;
69188;SDS011;56302;52.322;5.926;2023-04-01T07:41:45;9.35;;;4.10;;
69188;SDS011;56302;52.322;5.926;2023-04-01T07:47:40;10.03;;;3.67;;
69188;SDS011;56302;52.322;5.926;2023-04-01T07:56:11;10.60;;;5.00;;
69188;SDS011;56302;52.322;5.926;2023-04-01T07:59:00;10.18;;;4.20;;
69188;SDS011;56302;52.322;5.926;2023-04-01T08:01:55;9.97;;;4.23;;
69188;SDS011;56302;52.322;5.926;2023-04-01T08:07:23;11.77;;;4.50;;
69188;SDS011;56302;52.322;5.926;2023-04-01T08:15:23;14.30;;;4.33;;
69188;SDS011;56302;52.322;5.926;2023-04-01T08:18:04;9.90;;;4.47;;
69188;SDS011;56302;52.322;5.926;2023-04-01T08:23:32;8.85;;;3.88;;
69188;SDS011;56302;52.322;5.926;2023-04-01T08:26:13;8.55;;;3.90;;
69188;SDS011;56302;52.322;5.926;2023-04-01T08:29:02;14.00;;;3.77;;
69188;SDS011;56302;52.322;5.926;2023-04-01T08:31:48;7.60;;;3.70;;
69188;SDS011;56302;52.322;5.926;2023-04-01T08:34:21;7.30;;;3.50;;
69188;SDS011;56302;52.322;5.926;2023-04-01T08:36:57;7.53;;;3.05;;
69188;SDS011;56302;52.322;5.926;2023-04-01T08:39:37;6.95;;;2.33;;
69188;SDS011;56302;52.322;5.926;2023-04-01T08:56:23;3.37;;;1.30;;
69188;SDS011;56302;52.322;5.926;2023-04-01T09:04:52;2.75;;;1.23;;
69188;SDS011;56302;52.322;5.926;2023-04-01T09:10:53;3.17;;;1.50;;
69188;SDS011;56302;52.322;5.926;2023-04-01T09:13:48;3.55;;;1.25;;
69188;SDS011;56302;52.322;5.926;2023-04-01T09:16:57;2.72;;;1.27;;
69188;SDS011;56302;52.322;5.926;2023-04-01T09:20:02;2.28;;;0.98;;
69188;SDS011;56302;52.322;5.926;2023-04-01T09:22:48;3.45;;;1.40;;
69188;SDS011;56302;52.322;5.926;2023-04-01T09:25:53;3.40;;;1.10;;
69188;SDS011;56302;52.322;5.926;2023-04-01T09:28:42;3.40;;;1.73;;
69188;SDS011;56302;52.322;5.926;2023-04-01T09:31:38;2.85;;;1.40;;
69188;SDS011;56302;52.322;5.926;2023-04-01T09:36:47;4.47;;;1.75;;
69188;SDS011;56302;52.322;5.926;2023-04-01T09:39:24;4.23;;;1.73;;
69188;SDS011;56302;52.322;5.926;2023-04-01T09:44:36;3.57;;;1.47;;
69188;SDS011;56302;52.322;5.926;2023-04-01T09:47:25;3.75;;;1.52;;
69188;SDS011;56302;52.322;5.926;2023-04-01T09:50:27;3.70;;;1.70;;
69188;SDS011;56302;52.322;5.926;2023-04-01T09:55:29;3.47;;;1.70;;
69188;SDS011;56302;52.322;5.926;2023-04-01T09:58:51;4.68;;;2.25;;
69188;SDS011;56302;52.322;5.926;2023-04-01T10:01:34;3.90;;;1.90;;
69188;SDS011;56302;52.322;5.926;2023-04-01T10:04:32;4.18;;;2.00;;
69188;SDS011;56302;52.322;5.926;2023-04-01T10:15:27;4.18;;;2.00;;
69188;SDS011;56302;52.322;5.926;2023-04-01T10:18:15;4.45;;;2.20;;
69188;SDS011;56302;52.322;5.926;2023-04-01T10:31:56;4.68;;;2.72;;
69188;SDS011;56302;52.322;5.926;2023-04-01T10:48:26;6.85;;;2.90;;
69188;SDS011;56302;52.322;5.926;2023-04-01T10:56:58;4.25;;;2.30;;
69188;SDS011;56302;52.322;5.926;2023-04-01T11:03:04;5.07;;;2.78;;
69188;SDS011;56302;52.322;5.926;2023-04-01T11:25:55;8.93;;;3.83;;
69188;SDS011;56302;52.322;5.926;2023-04-01T11:28:40;6.70;;;3.78;;
69188;SDS011;56302;52.322;5.926;2023-04-01T11:36:47;6.90;;;3.90;;
69188;SDS011;56302;52.322;5.926;2023-04-01T11:39:29;5.57;;;2.90;;
69188;SDS011;56302;52.322;5.926;2023-04-01T11:48:48;5.80;;;2.70;;
69188;SDS011;56302;52.322;5.926;2023-04-01T12:02:55;5.85;;;2.53;;
69188;SDS011;56302;52.322;5.926;2023-04-01T12:05:47;4.47;;;2.33;;
69188;SDS011;56302;52.322;5.926;2023-04-01T12:08:29;3.97;;;2.17;;
69188;SDS011;56302;52.322;5.926;2023-04-01T12:18:48;6.05;;;3.03;;
69188;SDS011;56302;52.322;5.926;2023-04-01T12:21:36;8.68;;;2.70;;
69188;SDS011;56302;52.322;5.926;2023-04-01T12:34:49;4.55;;;2.50;;
69188;SDS011;56302;52.322;5.926;2023-04-01T12:43:12;5.85;;;2.80;;
69188;SDS011;56302;52.322;5.926;2023-04-01T12:46:03;5.22;;;2.55;;
69188;SDS011;56302;52.322;5.926;2023-04-01T12:48:57;5.18;;;3.13;;
69188;SDS011;56302;52.322;5.926;2023-04-01T12:57:08;6.78;;;3.25;;
69188;SDS011;56302;52.322;5.926;2023-04-01T13:03:02;5.80;;;3.35;;
69188;SDS011;56302;52.322;5.926;2023-04-01T13:06:11;7.28;;;3.85;;
69188;SDS011;56302;52.322;5.926;2023-04-01T13:08:50;6.55;;;3.80;;
69188;SDS011;56302;52.322;5.926;2023-04-01T13:11:30;5.82;;;3.47;;
69188;SDS011;56302;52.322;5.926;2023-04-01T13:14:29;5.90;;;3.60;;
69188;SDS011;56302;52.322;5.926;2023-04-01T13:17:30;7.28;;;3.42;;
69188;SDS011;56302;52.322;5.926;2023-04-01T13:27:49;5.53;;;3.42;;
69188;SDS011;56302;52.322;5.926;2023-04-01T13:30:24;8.53;;;4.73;;
69188;SDS011;56302;52.322;5.926;2023-04-01T13:41:25;8.90;;;4.80;;
69188;SDS011;56302;52.322;5.926;2023-04-01T13:46:38;8.77;;;4.28;;
69188;SDS011;56302;52.322;5.926;2023-04-01T13:49:30;12.90;;;4.57;;
69188;SDS011;56302;52.322;5.926;2023-04-01T14:32:57;6.32;;;3.97;;
69188;SDS011;56302;52.322;5.926;2023-04-01T14:38:45;6.15;;;3.90;;
69188;SDS011;56302;52.322;5.926;2023-04-01T14:41:35;6.13;;;3.85;;
69188;SDS011;56302;52.322;5.926;2023-04-01T14:47:15;6.45;;;3.65;;
69188;SDS011;56302;52.322;5.926;2023-04-01T14:50:12;5.95;;;3.60;;
69188;SDS011;56302;52.322;5.926;2023-04-01T14:52:40;7.20;;;3.83;;
69188;SDS011;56302;52.322;5.926;2023-04-01T14:55:19;6.32;;;4.10;;
69188;SDS011;56302;52.322;5.926;2023-04-01T14:57:58;5.73;;;3.50;;
69188;SDS011;56302;52.322;5.926;2023-04-01T15:00:25;5.85;;;3.70;;
69188;SDS011;56302;52.322;5.926;2023-04-01T15:02:58;6.13;;;3.65;;
69188;SDS011;56302;52.322;5.926;2023-04-01T15:08:23;5.97;;;3.42;;
69188;SDS011;56302;52.322;5.926;2023-04-01T15:13:41;7.28;;;3.88;;
69188;SDS011;56302;52.322;5.926;2023-04-01T15:21:56;5.60;;;3.60;;
69188;SDS011;56302;52.322;5.926;2023-04-01T15:33:27;5.80;;;3.25;;
69188;SDS011;56302;52.322;5.926;2023-04-01T15:36:25;5.65;;;3.45;;
69188;SDS011;56302;52.322;5.926;2023-04-01T15:44:26;6.87;;;3.37;;
69188;SDS011;56302;52.322;5.926;2023-04-01T15:47:03;6.13;;;3.00;;
69188;SDS011;56302;52.322;5.926;2023-04-01T15:52:56;5.00;;;3.05;;
69188;SDS011;56302;52.322;5.926;2023-04-01T15:55:41;5.68;;;3.28;;
69188;SDS011;56302;52.322;5.926;2023-04-01T15:58:34;4.97;;;2.80;;
69188;SDS011;56302;52.322;5.926;2023-04-01T16:01:55;6.43;;;3.10;;
69188;SDS011;56302;52.322;5.926;2023-04-01T16:07:08;5.50;;;3.25;;
69188;SDS011;56302;52.322;5.926;2023-04-01T16:12:35;8.03;;;3.47;;
69188;SDS011;56302;52.322;5.926;2023-04-01T16:21:12;6.05;;;3.42;;
69188;SDS011;56302;52.322;5.926;2023-04-01T16:23:49;6.65;;;3.60;;
69188;SDS011;56302;52.322;5.926;2023-04-01T16:29:12;6.78;;;3.78;;
69188;SDS011;56302;52.322;5.926;2023-04-01T16:34:56;6.15;;;3.50;;
69188;SDS011;56302;52.322;5.926;2023-04-01T16:37:32;6.78;;;3.90;;
69188;SDS011;56302;52.322;5.926;2023-04-01T16:40:16;7.23;;;3.80;;
69188;SDS011;56302;52.322;5.926;2023-04-01T16:45:39;6.65;;;4.20;;
69188;SDS011;56302;52.322;5.926;2023-04-01T16:48:14;6.40;;;3.55;;
69188;SDS011;56302;52.322;5.926;2023-04-01T16:54:01;7.43;;;4.07;;
69188;SDS011;56302;52.322;5.926;2023-04-01T16:56:39;7.28;;;3.50;;
69188;SDS011;56302;52.322;5.926;2023-04-01T17:04:38;6.57;;;3.65;;
69188;SDS011;56302;52.322;5.926;2023-04-01T17:10:06;8.15;;;4.20;;
69188;SDS011;56302;52.322;5.926;2023-04-01T17:15:21;6.03;;;4.10;;
69188;SDS011;56302;52.322;5.926;2023-04-01T17:18:10;7.75;;;4.10;;
69188;SDS011;56302;52.322;5.926;2023-04-01T17:23:31;6.38;;;3.78;;
69188;SDS011;56302;52.322;5.926;2023-04-01T17:26:19;6.93;;;4.10;;
69188;SDS011;56302;52.322;5.926;2023-04-01T17:28:56;6.00;;;3.95;;
69188;SDS011;56302;52.322;5.926;2023-04-01T17:34:18;6.07;;;3.87;;
69188;SDS011;56302;52.322;5.926;2023-04-01T17:45:21;6.85;;;4.22;;
69188;SDS011;56302;52.322;5.926;2023-04-01T17:48:01;6.30;;;4.27;;
69188;SDS011;56302;52.322;5.926;2023-04-01T17:53:06;7.18;;;3.80;;
69188;SDS011;56302;52.322;5.926;2023-04-01T17:55:48;6.40;;;3.97;;
69188;SDS011;56302;52.322;5.926;2023-04-01T18:01:19;6.27;;;3.87;;
69188;SDS011;56302;52.322;5.926;2023-04-01T18:14:39;6.53;;;3.77;;
69188;SDS011;56302;52.322;5.926;2023-04-01T18:17:23;5.68;;;3.53;;
69188;SDS011;56302;52.322;5.926;2023-04-01T18:22:59;5.30;;;3.08;;
69188;SDS011;56302;52.322;5.926;2023-04-01T18:33:31;6.05;;;3.42;;
69188;SDS011;56302;52.322;5.926;2023-04-01T18:38:35;5.65;;;3.83;;
69188;SDS011;56302;52.322;5.926;2023-04-01T18:41:22;5.13;;;3.50;;
69188;SDS011;56302;52.322;5.926;2023-04-01T18:44:19;5.18;;;3.10;;
69188;SDS011;56302;52.322;5.926;2023-04-01T18:46:59;5.45;;;3.38;;
69188;SDS011;56302;52.322;5.926;2023-04-01T18:49:55;6.15;;;3.63;;
69188;SDS011;56302;52.322;5.926;2023-04-01T18:52:25;7.60;;;3.38;;
69188;SDS011;56302;52.322;5.926;2023-04-01T18:57:26;5.85;;;3.33;;
69188;SDS011;56302;52.322;5.926;2023-04-01T19:00:08;8.32;;;3.90;;
69188;SDS011;56302;52.322;5.926;2023-04-01T19:02:40;7.28;;;3.58;;
69188;SDS011;56302;52.322;5.926;2023-04-01T19:05:14;7.53;;;4.10;;
69188;SDS011;56302;52.322;5.926;2023-04-01T19:07:47;8.00;;;3.97;;
69188;SDS011;56302;52.322;5.926;2023-04-01T19:13:19;7.25;;;5.03;;
69188;SDS011;56302;52.322;5.926;2023-04-01T19:18:57;12.10;;;5.80;;
69188;SDS011;56302;52.322;5.926;2023-04-01T19:35:13;8.90;;;6.17;;
69188;SDS011;56302;52.322;5.926;2023-04-01T19:38:19;8.68;;;5.55;;
69188;SDS011;56302;52.322;5.926;2023-04-01T19:40:58;8.73;;;5.88;;
69188;SDS011;56302;52.322;5.926;2023-04-01T19:43:48;9.25;;;6.32;;
69188;SDS011;56302;52.322;5.926;2023-04-01T19:51:44;10.82;;;7.30;;
69188;SDS011;56302;52.322;5.926;2023-04-01T19:57:09;8.15;;;5.55;;
69188;SDS011;56302;52.322;5.926;2023-04-01T20:00:07;9.70;;;6.82;;
69188;SDS011;56302;52.322;5.926;2023-04-01T20:07:52;11.03;;;7.53;;
69188;SDS011;56302;52.322;5.926;2023-04-01T20:18:34;9.65;;;6.53;;
69188;SDS011;56302;52.322;5.926;2023-04-01T20:21:17;9.07;;;5.53;;
69188;SDS011;56302;52.322;5.926;2023-04-01T20:26:42;9.48;;;6.25;;
69188;SDS011;56302;52.322;5.926;2023-04-01T20:35:18;10.90;;;6.93;;
69188;SDS011;56302;52.322;5.926;2023-04-01T20:41:11;10.73;;;6.85;;
69188;SDS011;56302;52.322;5.926;2023-04-01T20:44:20;13.27;;;7.70;;
69188;SDS011;56302;52.322;5.926;2023-04-01T20:57:36;16.67;;;8.05;;
69188;SDS011;56302;52.322;5.926;2023-04-01T21:13:57;10.98;;;7.10;;
69188;SDS011;56302;52.322;5.926;2023-04-01T21:16:53;10.57;;;6.60;;
69188;SDS011;56302;52.322;5.926;2023-04-01T21:22:28;10.38;;;6.47;;
69188;SDS011;56302;52.322;5.926;2023-04-01T21:27:42;10.55;;;5.85;;
69188;SDS011;56302;52.322;5.926;2023-04-01T21:57:54;10.17;;;6.30;;
69188;SDS011;56302;52.322;5.926;2023-04-01T22:00:46;12.05;;;7.63;;
69188;SDS011;56302;52.322;5.926;2023-04-01T22:19:35;13.45;;;7.28;;
69188;SDS011;56302;52.322;5.926;2023-04-01T22:24:56;11.60;;;7.50;;
69188;SDS011;56302;52.322;5.926;2023-04-01T22:27:35;11.00;;;7.35;;
69188;SDS011;56302;52.322;5.926;2023-04-01T22:30:44;12.60;;;7.70;;
69188;SDS011;56302;52.322;5.926;2023-04-01T22:33:34;13.45;;;8.30;;
69188;SDS011;56302;52.322;5.926;2023-04-01T22:36:33;11.65;;;7.97;;
69188;SDS011;56302;52.322;5.926;2023-04-01T22:45:02;12.25;;;7.35;;
69188;SDS011;56302;52.322;5.926;2023-04-01T22:51:07;13.65;;;7.45;;
69188;SDS011;56302;52.322;5.926;2023-04-01T22:56:46;13.65;;;7.40;;
69188;SDS011;56302;52.322;5.926;2023-04-01T22:59:34;13.48;;;7.05;;
69188;SDS011;56302;52.322;5.926;2023-04-01T23:02:21;10.55;;;6.35;;
69188;SDS011;56302;52.322;5.926;2023-04-01T23:04:54;11.27;;;7.00;;
69188;SDS011;56302;52.322;5.926;2023-04-01T23:07:31;13.80;;;8.27;;
69188;SDS011;56302;52.322;5.926;2023-04-01T23:10:18;12.73;;;7.82;;
69188;SDS011;56302;52.322;5.926;2023-04-01T23:12:56;13.15;;;7.65;;
69188;SDS011;56302;52.322;5.926;2023-04-01T23:15:25;11.98;;;7.32;;
69188;SDS011;56302;52.322;5.926;2023-04-01T23:20:54;15.10;;;7.87;;
69188;SDS011;56302;52.322;5.926;2023-04-01T23:23:23;15.25;;;7.85;;
69188;SDS011;56302;52.322;5.926;2023-04-01T23:25:54;13.98;;;7.85;;
69188;SDS011;56302;52.322;5.926;2023-04-01T23:28:45;14.63;;;8.02;;
69188;SDS011;56302;52.322;5.926;2023-04-01T23:33:59;13.53;;;8.17;;
69188;SDS011;56302;52.322;5.926;2023-04-01T23:36:29;12.85;;;7.80;;
69188;SDS011;56302;52.322;5.926;2023-04-01T23:38:55;14.88;;;8.23;;
69188;SDS011;56302;52.322;5.926;2023-04-01T23:41:25;14.63;;;8.95;;
69188;SDS011;56302;52.322;5.926;2023-04-01T23:44:00;16.40;;;8.65;;
69188;SDS011;56302;52.322;5.926;2023-04-01T23:46:37;12.93;;;8.47;;
69188;SDS011;56302;52.322;5.926;2023-04-01T23:49:04;14.55;;;8.82;;
69188;SDS011;56302;52.322;5.926;2023-04-01T23:51:38;14.10;;;8.75;;
69188;SDS011;56302;52.322;5.926;2023-04-01T23:54:18;14.95;;;8.65;;
69188;SDS011;56302;52.322;5.926;2023-04-01T23:56:54;15.20;;;8.63;;
